Airfield :
LOGIN :

Register | Disclaimer

   EN    FR    IT 

 










Legend :    VFR   Marginal VFR   IFR   Intensive IFR   Very Intensive IFR
Visi :
Ceiling :
>= 8 km
>= 3000ft
5 to 8 km
1000 to 3000 ft
1500m to 5 km
500 to 1000 ft
800 to 1500m
200 to 500 ft
< 800m
< 200 ft
Symbols :   Thunderstorms  Fog  Heavy snow  Heavy precipitations  Wind > 20 kt
SIGMETs :     Misc.  Thunderstorms  Icing  Turbulence  Mountain Waves  Volcanic Ashes







- Airport Elevation : 183 ft
- IATA code : HAJ


EDDV - Hanover/Langenhagen Int.

CURRENT METAR :
  • 211620Z 05008KT CAVOK 27/11 Q1010 NOSIG

EXPIRED METARs :
  • 211550Z 03006KT 340V060 CAVOK 27/11 Q1010 NOSIG
  • 211520Z 05005KT CAVOK 28/11 Q1010 NOSIG
  • 211450Z 06006KT CAVOK 28/12 Q1010 NOSIG
  • 211420Z 10006KT 070V140 CAVOK 28/10 Q1010 NOSIG
  • 211350Z 12007KT 090V170 CAVOK 29/10 Q1010 NOSIG

TAF TAF EDDV
Valid from the 21 at 12:00 until the 22 at 12:00 UTC


211100Z 2112/2212 10008KT CAVOK
BECMG 2117/2119 16004KT
PROB30
TEMPO 2118/2206 TSRA BKN025CB
BECMG 2205/2207 26006KT
No reported NOTAMs for that airfield.



MET'MAP, your aeronautical weather chart ! - Copyright ORBIFLY December 2007 - Disclaimer

ORBIFLY MET'MAP TEAM :

Programming & Development : Alexandra Zaïnal
Concept & Development : Baudouin d'Aumeries
Co-Development & Prog : Marc-Olivier Méhu
Technical & hardware support : Manuel Goepfert

Contact : metmap@orbifly.com




SOURCES & CREDITS :

   NOAA